createdAt,value
2023-04-29T00:01:03.606Z,4.18
2023-04-29T00:03:32.657Z,4.07
2023-04-29T00:06:00.965Z,3.85
2023-04-29T00:08:29.305Z,3.80
2023-04-29T00:10:57.174Z,4.00
2023-04-29T00:13:26.609Z,4.45
2023-04-29T00:15:54.476Z,4.07
2023-04-29T00:18:22.358Z,3.78
2023-04-29T00:20:50.276Z,4.07
2023-04-29T00:23:18.173Z,4.20
2023-04-29T00:25:46.052Z,3.75
2023-04-29T00:28:13.923Z,3.90
2023-04-29T00:30:43.149Z,3.78
2023-04-29T00:33:11.366Z,4.00
2023-04-29T00:35:39.277Z,4.00
2023-04-29T00:38:07.264Z,4.78
2023-04-29T00:40:35.800Z,4.00
2023-04-29T00:43:03.662Z,3.88
2023-04-29T00:45:31.537Z,4.03
2023-04-29T00:48:00.785Z,4.07
2023-04-29T00:50:28.833Z,3.80
2023-04-29T00:52:56.997Z,3.92
2023-04-29T00:55:26.400Z,3.75
2023-04-29T00:57:54.306Z,3.83
2023-04-29T01:00:22.381Z,3.58
2023-04-29T01:02:50.395Z,3.90
2023-04-29T01:05:20.000Z,3.67
2023-04-29T01:07:53.622Z,3.80
2023-04-29T01:10:25.966Z,4.20
2023-04-29T01:13:00.553Z,3.60
2023-04-29T01:15:30.556Z,3.95
2023-04-29T01:18:01.719Z,3.92
2023-04-29T01:20:31.269Z,3.63
2023-04-29T01:23:00.524Z,3.90
2023-04-29T01:25:29.964Z,3.90
2023-04-29T01:28:09.863Z,4.15
2023-04-29T01:30:43.442Z,3.65
2023-04-29T01:33:15.711Z,3.58
2023-04-29T01:35:48.984Z,3.60
2023-04-29T01:38:22.768Z,3.63
2023-04-29T01:40:59.084Z,3.97
2023-04-29T01:43:30.658Z,4.03
2023-04-29T01:46:01.026Z,3.85
2023-04-29T01:48:29.086Z,3.90
2023-04-29T01:50:57.227Z,3.70
2023-04-29T01:53:25.151Z,3.60
2023-04-29T01:55:54.726Z,3.47
2023-04-29T01:58:31.268Z,3.67
2023-04-29T02:01:33.841Z,3.63
2023-04-29T02:04:01.931Z,3.50
2023-04-29T02:06:32.269Z,3.80
2023-04-29T02:09:03.459Z,3.45
2023-04-29T02:11:33.697Z,3.42
2023-04-29T02:14:03.325Z,3.28
2023-04-29T02:16:31.627Z,3.65
2023-04-29T02:19:03.367Z,3.67
2023-04-29T02:21:31.774Z,3.30
2023-04-29T02:24:02.508Z,3.80
2023-04-29T02:26:30.446Z,3.70
2023-04-29T02:28:59.737Z,3.67
2023-04-29T02:31:29.068Z,3.30
2023-04-29T02:33:57.068Z,3.58
2023-04-29T02:36:25.511Z,3.53
2023-04-29T02:38:55.872Z,3.60
2023-04-29T02:41:23.866Z,3.90
2023-04-29T02:43:51.795Z,3.53
2023-04-29T02:46:21.247Z,3.65
2023-04-29T02:48:49.249Z,3.40
2023-04-29T02:51:17.192Z,3.60
2023-04-29T02:53:45.131Z,3.63
2023-04-29T02:56:13.139Z,3.47
2023-04-29T02:58:42.265Z,3.67
2023-04-29T03:01:10.240Z,3.35
2023-04-29T03:03:40.038Z,3.47
2023-04-29T03:06:08.202Z,3.60
2023-04-29T03:08:36.090Z,3.65
2023-04-29T03:11:04.450Z,3.50
2023-04-29T03:13:32.476Z,3.40
2023-04-29T03:16:01.689Z,3.35
2023-04-29T03:18:29.616Z,3.88
2023-04-29T03:20:58.948Z,3.75
2023-04-29T03:23:27.963Z,3.60
2023-04-29T03:25:56.818Z,3.58
2023-04-29T03:28:26.366Z,3.17
2023-04-29T03:30:54.392Z,3.30
2023-04-29T03:33:22.465Z,3.35
2023-04-29T03:35:51.182Z,3.60
2023-04-29T03:38:26.880Z,3.25
2023-04-29T03:40:56.100Z,3.58
2023-04-29T03:43:24.056Z,3.50
2023-04-29T03:45:52.064Z,3.83
2023-04-29T03:48:23.229Z,3.50
2023-04-29T03:50:52.957Z,3.45
2023-04-29T03:53:21.894Z,3.22
2023-04-29T03:55:51.340Z,3.63
2023-04-29T03:58:19.377Z,3.53
2023-04-29T04:00:47.378Z,3.30
2023-04-29T04:03:20.774Z,3.45
2023-04-29T04:05:49.003Z,3.42
2023-04-29T04:08:17.688Z,3.40
2023-04-29T04:10:55.685Z,3.28
2023-04-29T04:13:33.332Z,3.22
2023-04-29T04:16:01.477Z,3.17
2023-04-29T04:18:29.519Z,3.80
2023-04-29T04:20:58.068Z,3.38
2023-04-29T04:23:27.258Z,3.53
2023-04-29T04:25:58.073Z,3.35
2023-04-29T04:28:53.000Z,3.20
2023-04-29T04:31:35.140Z,3.08
2023-04-29T04:34:03.208Z,3.28
2023-04-29T04:36:33.649Z,3.30
2023-04-29T04:39:01.802Z,3.38
2023-04-29T04:41:32.050Z,3.60
2023-04-29T04:44:00.490Z,3.10
2023-04-29T04:46:40.155Z,3.45
2023-04-29T04:49:17.226Z,3.20
2023-04-29T04:51:51.598Z,3.20
2023-04-29T04:54:19.626Z,3.10
2023-04-29T04:56:52.148Z,3.42
2023-04-29T04:59:20.124Z,3.20
2023-04-29T05:01:48.134Z,3.45
2023-04-29T05:04:16.564Z,3.28
2023-04-29T05:06:44.632Z,3.47
2023-04-29T05:09:12.576Z,3.33
2023-04-29T05:11:41.906Z,3.53
2023-04-29T05:14:14.775Z,3.45
2023-04-29T05:16:43.680Z,3.33
2023-04-29T05:19:11.657Z,3.20
2023-04-29T05:21:41.204Z,3.30
2023-04-29T05:24:11.294Z,3.05
2023-04-29T05:26:39.412Z,3.10
2023-04-29T05:29:08.088Z,3.13
2023-04-29T05:31:46.698Z,3.22
2023-04-29T05:34:15.111Z,3.22
2023-04-29T05:36:43.271Z,3.20
2023-04-29T05:39:11.350Z,3.30
2023-04-29T05:41:39.735Z,3.90
2023-04-29T05:44:20.931Z,3.17
2023-04-29T05:46:51.673Z,3.15
2023-04-29T05:49:20.224Z,2.85
2023-04-29T05:51:48.107Z,2.97
2023-04-29T05:54:15.995Z,3.17
2023-04-29T05:56:44.261Z,2.85
2023-04-29T05:59:12.226Z,3.25
2023-04-29T06:01:40.418Z,3.20
2023-04-29T06:04:10.043Z,3.00
2023-04-29T06:07:13.337Z,3.03
2023-04-29T06:09:55.205Z,3.35
2023-04-29T06:12:23.276Z,3.10
2023-04-29T06:14:51.260Z,3.00
2023-04-29T06:17:19.215Z,3.40
2023-04-29T06:19:48.452Z,2.90
2023-04-29T06:22:16.437Z,2.78
2023-04-29T06:24:50.010Z,3.50
2023-04-29T06:27:26.460Z,3.00
2023-04-29T06:29:54.635Z,3.00
2023-04-29T06:32:23.023Z,3.60
2023-04-29T06:34:52.250Z,3.30
2023-04-29T06:37:27.668Z,3.10
2023-04-29T06:40:14.300Z,2.90
2023-04-29T06:43:04.587Z,3.00
2023-04-29T06:45:52.084Z,3.42
2023-04-29T06:48:42.897Z,2.95
2023-04-29T06:51:12.258Z,3.30
2023-04-29T06:53:40.230Z,3.25
2023-04-29T06:56:08.871Z,3.30
2023-04-29T06:58:36.782Z,3.22
2023-04-29T07:01:05.808Z,3.67
2023-04-29T07:03:33.903Z,3.65
2023-04-29T07:06:01.884Z,4.00
2023-04-29T07:08:32.193Z,3.65
2023-04-29T07:11:00.135Z,3.80
2023-04-29T07:13:28.112Z,3.83
2023-04-29T07:15:56.021Z,3.90
2023-04-29T07:18:24.123Z,4.13
2023-04-29T07:20:52.919Z,4.28
2023-04-29T07:23:20.955Z,4.75
2023-04-29T07:25:50.236Z,4.28
2023-04-29T07:28:18.649Z,4.63
2023-04-29T07:30:47.050Z,5.35
2023-04-29T07:33:15.069Z,4.93
2023-04-29T07:35:44.539Z,4.72
2023-04-29T07:38:12.944Z,5.10
2023-04-29T07:40:42.864Z,4.72
2023-04-29T07:43:13.060Z,5.10
2023-04-29T07:45:41.530Z,5.88
2023-04-29T07:48:09.444Z,5.82
2023-04-29T07:50:37.687Z,5.55
2023-04-29T07:53:05.583Z,5.50
2023-04-29T07:55:33.523Z,5.75
2023-04-29T07:58:02.466Z,4.97
2023-04-29T08:00:31.772Z,5.15
2023-04-29T08:02:59.830Z,5.43
2023-04-29T08:05:28.198Z,5.75
2023-04-29T08:07:56.618Z,7.00
2023-04-29T08:10:27.281Z,6.38
2023-04-29T08:12:56.061Z,6.60
2023-04-29T08:15:24.170Z,6.50
2023-04-29T08:17:53.759Z,6.57
2023-04-29T08:20:21.812Z,7.38
2023-04-29T08:22:49.769Z,6.25
2023-04-29T08:25:17.823Z,5.88
2023-04-29T08:27:46.081Z,5.40
2023-04-29T08:30:14.643Z,5.47
2023-04-29T08:32:42.682Z,6.18
2023-04-29T08:35:12.936Z,5.32
2023-04-29T08:37:40.784Z,4.82
2023-04-29T08:40:10.114Z,5.55
2023-04-29T08:42:38.514Z,5.13
2023-04-29T08:45:07.259Z,4.90
2023-04-29T08:47:35.367Z,5.30
2023-04-29T08:50:05.202Z,5.40
2023-04-29T08:52:34.600Z,5.03
2023-04-29T08:55:03.418Z,9.50
2023-04-29T08:57:31.400Z,13.50
2023-04-29T09:00:00.969Z,7.35
2023-04-29T09:02:29.012Z,6.90
2023-04-29T09:05:07.440Z,5.85
2023-04-29T09:07:36.759Z,6.35
2023-04-29T09:10:05.963Z,7.80
2023-04-29T09:12:33.936Z,7.05
2023-04-29T09:15:01.858Z,6.95
2023-04-29T09:17:42.967Z,6.68
2023-04-29T09:20:30.306Z,6.72
2023-04-29T09:23:01.185Z,6.28
2023-04-29T09:25:29.178Z,6.15
2023-04-29T09:27:57.027Z,5.90
2023-04-29T09:30:26.844Z,5.85
2023-04-29T09:33:08.351Z,6.65
2023-04-29T09:35:36.991Z,6.10
2023-04-29T09:38:13.495Z,5.63
2023-04-29T09:40:54.490Z,6.05
2023-04-29T09:43:26.753Z,5.97
2023-04-29T09:45:54.841Z,6.50
2023-04-29T09:48:22.953Z,5.60
2023-04-29T09:51:01.436Z,5.75
2023-04-29T09:53:31.414Z,5.63
2023-04-29T09:56:00.006Z,5.30
2023-04-29T09:58:34.119Z,5.85
2023-04-29T10:01:02.598Z,5.65
2023-04-29T10:03:33.433Z,5.40
2023-04-29T10:06:01.852Z,5.55
2023-04-29T10:08:31.683Z,5.15
2023-04-29T10:11:01.188Z,5.03
2023-04-29T10:13:29.314Z,5.28
2023-04-29T10:16:00.223Z,5.85
2023-04-29T10:18:32.067Z,5.32
2023-04-29T10:20:59.940Z,4.97
2023-04-29T10:23:27.863Z,5.10
2023-04-29T10:25:57.397Z,4.80
2023-04-29T10:28:25.348Z,5.20
2023-04-29T10:30:53.427Z,4.57
2023-04-29T10:33:21.639Z,4.63
2023-04-29T10:35:49.820Z,4.47
2023-04-29T10:38:22.879Z,4.28
2023-04-29T10:40:50.786Z,5.00
2023-04-29T10:43:23.491Z,4.82
2023-04-29T10:45:51.423Z,4.80
2023-04-29T10:48:21.878Z,4.78
2023-04-29T10:51:05.912Z,4.47
2023-04-29T10:53:34.271Z,4.57
2023-04-29T10:56:07.175Z,4.60
2023-04-29T10:58:44.396Z,4.97
2023-04-29T11:01:13.189Z,4.28
2023-04-29T11:03:49.220Z,4.30
2023-04-29T11:06:17.475Z,4.22
2023-04-29T11:08:45.451Z,4.15
2023-04-29T11:11:14.556Z,4.13
2023-04-29T11:13:44.075Z,3.97
2023-04-29T11:16:12.560Z,4.00
2023-04-29T11:19:07.973Z,4.22
2023-04-29T11:21:36.610Z,4.28
2023-04-29T11:24:06.379Z,4.20
2023-04-29T11:26:35.564Z,4.18
2023-04-29T11:29:05.562Z,3.63
2023-04-29T11:31:33.703Z,3.97
2023-04-29T11:34:01.748Z,3.67
2023-04-29T11:36:29.667Z,3.53
2023-04-29T11:38:58.058Z,4.10
2023-04-29T11:41:25.917Z,3.85
2023-04-29T11:43:56.995Z,3.70
2023-04-29T11:46:26.318Z,3.28
2023-04-29T11:48:54.300Z,3.90
2023-04-29T11:51:22.513Z,3.65
2023-04-29T11:53:50.430Z,3.80
2023-04-29T11:56:18.269Z,3.53
2023-04-29T11:58:46.145Z,3.72
2023-04-29T12:01:14.069Z,4.22
2023-04-29T12:03:43.604Z,3.53
2023-04-29T12:06:11.647Z,3.72
2023-04-29T12:08:39.568Z,3.60
2023-04-29T12:11:08.061Z,3.67
2023-04-29T12:13:36.568Z,3.50
2023-04-29T12:16:05.029Z,3.67
2023-04-29T12:18:32.965Z,3.35
2023-04-29T12:21:02.151Z,3.50
2023-04-29T12:23:30.023Z,3.40
2023-04-29T12:25:58.713Z,3.40
2023-04-29T12:28:26.886Z,3.55
2023-04-29T12:30:55.418Z,3.47
2023-04-29T12:33:24.605Z,3.67
2023-04-29T12:35:52.648Z,3.80
2023-04-29T12:38:26.971Z,3.40
2023-04-29T12:40:55.387Z,3.78
2023-04-29T12:43:27.649Z,3.35
2023-04-29T12:45:55.982Z,3.40
2023-04-29T12:48:30.117Z,3.28
2023-04-29T12:51:00.329Z,3.75
2023-04-29T12:53:30.815Z,3.35
2023-04-29T12:55:58.902Z,3.22
2023-04-29T12:58:29.278Z,3.30
2023-04-29T13:00:57.492Z,3.40
2023-04-29T13:03:25.874Z,3.60
2023-04-29T13:05:54.796Z,3.20
2023-04-29T13:08:23.067Z,3.22
2023-04-29T13:10:53.609Z,3.28
2023-04-29T13:13:21.569Z,3.50
2023-04-29T13:15:49.453Z,3.45
2023-04-29T13:18:17.473Z,3.63
2023-04-29T13:20:45.621Z,3.28
2023-04-29T13:23:13.492Z,3.47
2023-04-29T13:25:41.472Z,3.00
2023-04-29T13:28:11.489Z,3.20
2023-04-29T13:30:39.375Z,3.05
2023-04-29T13:33:12.288Z,3.47
2023-04-29T13:35:41.640Z,3.20
2023-04-29T13:38:09.826Z,3.08
2023-04-29T13:40:41.759Z,3.55
2023-04-29T13:43:16.928Z,2.88
2023-04-29T13:45:53.177Z,3.30
2023-04-29T13:49:00.779Z,3.28
2023-04-29T13:59:36.952Z,3.20
2023-04-29T14:04:12.665Z,3.00
2023-04-29T14:06:40.752Z,3.10
2023-04-29T14:09:08.683Z,3.85
2023-04-29T14:11:36.891Z,3.33
2023-04-29T14:14:06.336Z,3.40
2023-04-29T14:16:34.504Z,3.40
2023-04-29T14:19:04.030Z,3.22
2023-04-29T14:21:33.307Z,3.10
2023-04-29T14:24:02.414Z,3.30
2023-04-29T14:26:30.956Z,3.20
2023-04-29T14:28:59.456Z,3.05
2023-04-29T14:31:29.641Z,2.90
2023-04-29T14:33:57.826Z,3.10
2023-04-29T14:36:26.359Z,3.40
2023-04-29T14:38:54.349Z,2.90
2023-04-29T14:41:22.500Z,3.08
2023-04-29T14:43:50.400Z,3.00
2023-04-29T14:46:18.381Z,3.15
2023-04-29T14:48:47.662Z,3.10
2023-04-29T14:51:15.549Z,3.10
2023-04-29T14:53:43.414Z,3.03
2023-04-29T14:56:11.308Z,3.10
2023-04-29T14:58:39.245Z,3.15
2023-04-29T15:01:07.184Z,3.00
2023-04-29T15:06:09.429Z,3.10
2023-04-29T15:08:38.227Z,2.90
2023-04-29T15:11:06.123Z,2.75
2023-04-29T15:13:34.022Z,3.15
2023-04-29T15:16:01.947Z,2.97
2023-04-29T15:18:29.862Z,2.67
2023-04-29T15:20:57.741Z,3.20
2023-04-29T15:23:27.030Z,3.10
2023-04-29T15:25:54.935Z,2.70
2023-04-29T15:28:24.534Z,2.80
2023-04-29T15:30:52.479Z,2.92
2023-04-29T15:33:20.501Z,2.85
2023-04-29T15:35:48.478Z,2.70
2023-04-29T15:38:16.338Z,3.17
2023-04-29T15:40:46.424Z,3.47
2023-04-29T15:43:14.364Z,2.90
2023-04-29T15:45:42.481Z,3.30
2023-04-29T15:48:10.514Z,3.42
2023-04-29T15:50:38.556Z,3.10
2023-04-29T15:53:06.472Z,3.30
2023-04-29T15:55:35.528Z,3.08
2023-04-29T15:58:04.749Z,3.10
2023-04-29T16:00:32.673Z,3.35
2023-04-29T16:03:00.658Z,3.03
2023-04-29T16:05:29.664Z,2.92
2023-04-29T16:07:57.578Z,3.42
2023-04-29T16:10:25.597Z,3.13
2023-04-29T16:12:53.556Z,3.45
2023-04-29T16:15:22.839Z,3.20
2023-04-29T16:17:50.775Z,3.00
2023-04-29T16:20:19.314Z,3.45
2023-04-29T16:22:47.271Z,3.20
2023-04-29T16:25:15.362Z,3.28
2023-04-29T16:27:43.237Z,3.30
2023-04-29T16:30:11.672Z,3.20
2023-04-29T16:32:41.614Z,3.33
2023-04-29T16:35:10.618Z,3.40
2023-04-29T16:37:38.695Z,3.60
2023-04-29T16:40:07.869Z,3.25
2023-04-29T16:42:36.081Z,3.00
2023-04-29T16:45:04.123Z,3.38
2023-04-29T16:47:32.076Z,3.00
2023-04-29T16:50:01.460Z,3.20
2023-04-29T16:52:29.418Z,3.22
2023-04-29T16:54:57.292Z,3.30
2023-04-29T16:57:26.578Z,2.95
2023-04-29T16:59:54.709Z,3.20
2023-04-29T17:02:22.866Z,3.05
2023-04-29T17:04:50.836Z,2.95
2023-04-29T17:07:20.292Z,3.10
2023-04-29T17:09:48.417Z,3.17
2023-04-29T17:12:16.355Z,2.92
2023-04-29T17:14:44.276Z,3.03
2023-04-29T17:17:12.168Z,3.67
2023-04-29T17:19:40.124Z,2.85
2023-04-29T17:22:08.024Z,3.25
2023-04-29T17:24:37.292Z,3.00
2023-04-29T17:27:05.582Z,3.20
2023-04-29T17:29:33.515Z,2.60
2023-04-29T17:32:03.402Z,2.78
2023-04-29T17:34:33.975Z,2.90
2023-04-29T17:37:01.951Z,2.92
2023-04-29T17:39:30.121Z,2.80
2023-04-29T17:41:59.393Z,2.90
2023-04-29T17:44:27.291Z,2.97
2023-04-29T17:46:55.183Z,3.03
2023-04-29T17:49:23.058Z,2.85
2023-04-29T17:51:50.956Z,3.00
2023-04-29T17:54:18.879Z,2.63
2023-04-29T17:56:46.742Z,2.72
2023-04-29T17:59:16.536Z,2.83
2023-04-29T18:01:44.452Z,2.70
2023-04-29T18:04:12.980Z,2.80
2023-04-29T18:06:41.082Z,3.00
2023-04-29T18:09:09.512Z,2.92
2023-04-29T18:11:37.379Z,2.88
2023-04-29T18:14:05.756Z,2.80
2023-04-29T18:16:35.194Z,2.80
2023-04-29T18:19:03.135Z,2.67
2023-04-29T18:21:31.895Z,2.80
2023-04-29T18:23:59.799Z,2.95
2023-04-29T18:26:27.696Z,2.97
2023-04-29T18:28:55.635Z,2.88
2023-04-29T18:31:26.330Z,2.72
2023-04-29T18:33:55.761Z,2.80
2023-04-29T18:36:23.720Z,2.80
2023-04-29T18:38:51.587Z,2.65
2023-04-29T18:41:19.467Z,2.92
2023-04-29T18:43:47.345Z,2.65
2023-04-29T18:46:15.268Z,2.60
2023-04-29T18:48:43.554Z,2.40
2023-04-29T18:51:12.803Z,2.97
2023-04-29T18:53:40.655Z,2.60
2023-04-29T18:56:08.565Z,2.83
2023-04-29T18:58:36.558Z,2.90
2023-04-29T19:01:04.525Z,2.97
2023-04-29T19:03:32.611Z,2.60
2023-04-29T19:06:00.500Z,2.78
2023-04-29T19:08:29.808Z,2.90
2023-04-29T19:10:59.965Z,2.53
2023-04-29T19:13:29.350Z,2.60
2023-04-29T19:15:59.371Z,2.80
2023-04-29T19:18:27.930Z,2.55
2023-04-29T19:20:56.143Z,2.80
2023-04-29T19:23:24.116Z,2.70
2023-04-29T19:25:53.384Z,2.67
2023-04-29T19:28:21.293Z,2.70
2023-04-29T19:30:49.129Z,2.72
2023-04-29T19:33:17.169Z,2.88
2023-04-29T19:35:45.151Z,3.10
2023-04-29T19:38:13.067Z,2.80
2023-04-29T19:40:40.979Z,2.90
2023-04-29T19:43:10.288Z,2.90
2023-04-29T19:45:38.158Z,2.78
2023-04-29T19:48:06.477Z,2.50
2023-04-29T19:50:34.538Z,2.75
2023-04-29T19:53:02.468Z,2.53
2023-04-29T19:55:30.431Z,2.75
2023-04-29T19:57:58.507Z,2.70
2023-04-29T20:00:27.796Z,2.78
2023-04-29T20:02:56.648Z,2.70
2023-04-29T20:05:24.837Z,2.47
2023-04-29T20:07:52.782Z,3.10
2023-04-29T20:10:20.697Z,2.90
2023-04-29T20:12:48.626Z,2.95
2023-04-29T20:15:16.567Z,2.90
2023-04-29T20:17:45.860Z,3.00
2023-04-29T20:20:13.857Z,3.08
2023-04-29T20:22:41.727Z,3.05
2023-04-29T20:25:10.692Z,2.80
2023-04-29T20:27:38.633Z,2.83
2023-04-29T20:30:08.752Z,3.25
2023-04-29T20:32:37.043Z,3.20
2023-04-29T20:35:08.205Z,3.30
2023-04-29T20:37:36.173Z,3.05
2023-04-29T20:40:06.349Z,3.30
2023-04-29T20:42:34.252Z,3.92
2023-04-29T20:45:02.228Z,3.20
2023-04-29T20:47:30.158Z,3.50
2023-04-29T20:49:58.149Z,3.60
2023-04-29T20:52:27.614Z,3.10
2023-04-29T20:54:55.570Z,3.15
2023-04-29T20:57:23.493Z,3.58
2023-04-29T20:59:51.505Z,3.13
2023-04-29T21:02:19.595Z,3.40
2023-04-29T21:04:47.657Z,3.25
2023-04-29T21:07:15.640Z,3.20
2023-04-29T21:09:44.886Z,3.28
2023-04-29T21:12:14.885Z,3.33
2023-04-29T21:14:43.050Z,3.00
2023-04-29T21:17:11.030Z,3.30
2023-04-29T21:19:38.972Z,3.28
2023-04-29T21:22:06.978Z,3.50
2023-04-29T21:24:34.829Z,3.08
2023-04-29T21:27:04.226Z,3.45
2023-04-29T21:29:34.504Z,3.40
2023-04-29T21:32:02.455Z,3.45
2023-04-29T21:34:30.584Z,3.38
2023-04-29T21:36:58.438Z,3.30
2023-04-29T21:39:26.383Z,3.85
2023-04-29T21:41:54.294Z,3.42
2023-04-29T21:44:23.511Z,3.60
2023-04-29T21:46:51.480Z,3.80
2023-04-29T21:49:19.372Z,4.10
2023-04-29T21:51:47.245Z,3.78
2023-04-29T21:54:15.098Z,3.90
2023-04-29T21:56:42.992Z,3.67
2023-04-29T21:59:10.882Z,3.90
2023-04-29T22:01:49.256Z,3.80
2023-04-29T22:04:17.328Z,3.55
2023-04-29T22:06:45.258Z,3.70
2023-04-29T22:09:13.286Z,4.10
2023-04-29T22:11:41.393Z,3.85
2023-04-29T22:14:09.326Z,4.00
2023-04-29T22:16:37.416Z,3.90
2023-04-29T22:19:07.124Z,4.00
2023-04-29T22:21:35.049Z,4.00
2023-04-29T22:24:03.019Z,3.83
2023-04-29T22:26:31.138Z,4.13
2023-04-29T22:28:59.055Z,4.20
2023-04-29T22:31:27.542Z,3.72
2023-04-29T22:33:55.517Z,4.15
2023-04-29T22:36:24.813Z,3.80
2023-04-29T22:38:52.716Z,4.10
2023-04-29T22:41:21.725Z,4.43
2023-04-29T22:43:49.645Z,4.13
2023-04-29T22:46:17.756Z,4.40
2023-04-29T22:48:45.854Z,4.20
2023-04-29T22:51:13.713Z,4.35
2023-04-29T22:53:42.938Z,4.32
2023-04-29T22:56:10.804Z,4.00
2023-04-29T22:58:39.500Z,4.30
2023-04-29T23:01:08.205Z,4.20
2023-04-29T23:03:38.800Z,4.45
2023-04-29T23:06:06.987Z,4.40
2023-04-29T23:08:34.932Z,3.80
2023-04-29T23:11:04.242Z,3.97
2023-04-29T23:13:32.513Z,4.32
2023-04-29T23:16:01.351Z,4.45
2023-04-29T23:18:29.493Z,4.38
2023-04-29T23:20:57.462Z,4.10
2023-04-29T23:23:25.553Z,4.35
2023-04-29T23:25:53.547Z,4.30
2023-04-29T23:28:24.568Z,4.57
2023-04-29T23:30:52.699Z,4.28
2023-04-29T23:33:20.710Z,4.32
2023-04-29T23:35:52.046Z,4.50
2023-04-29T23:38:20.213Z,4.07
2023-04-29T23:40:48.285Z,4.20
2023-04-29T23:43:16.179Z,4.18
2023-04-29T23:45:47.415Z,4.45
2023-04-29T23:48:16.134Z,4.30
2023-04-29T23:50:43.996Z,4.50
2023-04-29T23:53:11.875Z,4.32
2023-04-29T23:55:39.820Z,4.45
2023-04-29T23:58:07.691Z,4.05
